createdAt,value
2022-08-22T00:00:43.918Z,3.10
2022-08-22T00:01:35.302Z,3.50
2022-08-22T00:02:41.888Z,1.90
2022-08-22T00:02:42.500Z,1.95
2022-08-22T00:02:53.605Z,2.60
2022-08-22T00:02:54.357Z,2.92
2022-08-22T00:03:00.234Z,2.00
2022-08-22T00:03:01.345Z,2.30
2022-08-22T00:03:09.034Z,3.05
2022-08-22T00:03:09.682Z,2.42
2022-08-22T00:03:12.379Z,3.08
2022-08-22T00:03:15.114Z,2.90
2022-08-22T00:04:12.015Z,2.70
2022-08-22T00:05:14.619Z,3.20
2022-08-22T00:06:08.240Z,3.20
2022-08-22T00:07:06.593Z,3.00
2022-08-22T00:08:08.501Z,3.20
2022-08-22T00:09:03.708Z,3.47
2022-08-22T00:09:54.820Z,3.40
2022-08-22T00:11:04.167Z,3.45
2022-08-22T00:12:14.882Z,3.40
2022-08-22T00:13:22.611Z,3.00
2022-08-22T00:14:33.085Z,2.92
2022-08-22T00:15:42.142Z,3.47
2022-08-22T00:16:37.654Z,2.70
2022-08-22T00:17:52.410Z,3.40
2022-08-22T00:18:57.957Z,3.20
2022-08-22T00:20:28.056Z,3.08
2022-08-22T00:21:35.606Z,3.13
2022-08-22T00:22:22.484Z,3.05
2022-08-22T00:23:19.226Z,3.70
2022-08-22T00:24:06.924Z,3.20
2022-08-22T00:24:58.202Z,3.42
2022-08-22T00:25:53.594Z,3.30
2022-08-22T00:26:42.174Z,3.60
2022-08-22T00:27:35.148Z,2.78
2022-08-22T00:28:35.000Z,3.00
2022-08-22T00:29:22.506Z,3.50
2022-08-22T00:30:13.924Z,3.85
2022-08-22T00:31:28.569Z,3.78
2022-08-22T00:32:20.025Z,2.90
2022-08-22T00:33:18.133Z,3.10
2022-08-22T00:34:23.918Z,3.50
2022-08-22T00:35:14.896Z,3.53
2022-08-22T00:36:14.908Z,3.67
2022-08-22T00:37:19.111Z,4.00
2022-08-22T00:38:16.322Z,3.13
2022-08-22T00:39:11.290Z,3.90
2022-08-22T00:40:08.749Z,3.00
2022-08-22T00:41:00.223Z,2.95
2022-08-22T00:41:54.113Z,3.10
2022-08-22T00:42:48.020Z,3.60
2022-08-22T00:43:38.796Z,3.50
2022-08-22T00:44:29.365Z,2.92
2022-08-22T00:45:20.734Z,3.40
2022-08-22T00:46:27.926Z,3.30
2022-08-22T00:47:38.170Z,3.60
2022-08-22T00:48:53.167Z,3.17
2022-08-22T00:49:53.294Z,3.05
2022-08-22T00:51:03.439Z,3.30
2022-08-22T00:52:02.503Z,3.40
2022-08-22T00:52:58.847Z,3.35
2022-08-22T00:53:49.124Z,3.78
2022-08-22T00:55:00.208Z,3.70
2022-08-22T00:56:00.069Z,3.20
2022-08-22T00:57:12.461Z,3.70
2022-08-22T00:58:16.076Z,3.83
2022-08-22T00:59:23.228Z,3.40
2022-08-22T01:00:09.198Z,3.70
2022-08-22T01:00:57.018Z,3.40
2022-08-22T01:01:51.426Z,3.53
2022-08-22T01:02:54.497Z,3.78
2022-08-22T01:04:00.680Z,3.33
2022-08-22T01:05:15.640Z,3.75
2022-08-22T01:06:14.341Z,3.30
2022-08-22T01:07:38.211Z,3.70
2022-08-22T01:08:50.669Z,3.50
2022-08-22T01:10:10.315Z,3.78
2022-08-22T01:11:35.826Z,3.80
2022-08-22T01:12:36.418Z,4.10
2022-08-22T01:13:39.441Z,3.47
2022-08-22T01:14:34.853Z,3.97
2022-08-22T01:15:24.689Z,3.75
2022-08-22T01:16:54.776Z,3.90
2022-08-22T01:17:48.298Z,3.70
2022-08-22T01:18:56.104Z,4.10
2022-08-22T01:19:56.252Z,3.50
2022-08-22T01:21:20.763Z,3.20
2022-08-22T01:22:43.502Z,3.80
2022-08-22T01:23:37.115Z,3.20
2022-08-22T01:25:08.322Z,3.40
2022-08-22T01:26:09.861Z,3.60
2022-08-22T01:27:03.600Z,3.50
2022-08-22T01:28:31.343Z,4.00
2022-08-22T01:29:30.447Z,4.00
2022-08-22T01:30:20.176Z,3.95
2022-08-22T01:31:05.443Z,4.00
2022-08-22T01:32:08.603Z,4.22
2022-08-22T01:33:24.991Z,3.60
2022-08-22T01:34:37.590Z,3.83
2022-08-22T01:35:31.314Z,3.83
2022-08-22T01:36:12.941Z,3.60
2022-08-22T01:37:21.682Z,3.33
2022-08-22T01:38:18.285Z,3.63
2022-08-22T01:39:21.682Z,3.75
2022-08-22T01:40:13.109Z,3.42
2022-08-22T01:41:05.156Z,3.80
2022-08-22T01:41:49.961Z,3.95
2022-08-22T01:42:43.259Z,3.65
2022-08-22T01:43:59.239Z,4.00
2022-08-22T01:45:04.364Z,3.83
2022-08-22T01:46:01.483Z,4.30
2022-08-22T01:46:56.606Z,3.70
2022-08-22T01:47:55.347Z,3.90
2022-08-22T01:48:58.422Z,3.60
2022-08-22T01:49:47.904Z,4.13
2022-08-22T01:50:41.922Z,3.78
2022-08-22T01:51:32.886Z,3.80
2022-08-22T01:52:40.438Z,4.15
2022-08-22T01:53:50.573Z,3.70
2022-08-22T01:54:54.741Z,4.30
2022-08-22T01:55:52.420Z,3.75
2022-08-22T01:56:45.703Z,4.30
2022-08-22T01:57:27.835Z,3.10
2022-08-22T01:58:21.061Z,3.72
2022-08-22T01:59:11.214Z,3.85
2022-08-22T01:59:58.110Z,3.45
2022-08-22T02:00:58.790Z,4.30
2022-08-22T02:01:46.718Z,3.88
2022-08-22T02:02:58.549Z,3.30
2022-08-22T02:04:07.361Z,3.97
2022-08-22T02:05:19.183Z,3.60
2022-08-22T02:06:04.988Z,4.22
2022-08-22T02:07:11.154Z,3.90
2022-08-22T02:08:11.381Z,3.90
2022-08-22T02:09:04.077Z,3.63
2022-08-22T02:10:13.835Z,4.40
2022-08-22T02:11:12.457Z,3.83
2022-08-22T02:12:02.995Z,4.18
2022-08-22T02:13:09.802Z,4.60
2022-08-22T02:14:06.518Z,4.40
2022-08-22T02:15:31.012Z,3.80
2022-08-22T02:16:27.057Z,4.53
2022-08-22T02:17:31.370Z,3.90
2022-08-22T02:18:23.033Z,4.60
2022-08-22T02:19:17.538Z,4.22
2022-08-22T02:20:10.673Z,4.05
2022-08-22T02:21:14.413Z,4.28
2022-08-22T02:22:19.045Z,3.93
2022-08-22T02:23:04.182Z,4.60
2022-08-22T02:23:49.010Z,4.00
2022-08-22T02:24:33.893Z,3.85
2022-08-22T02:25:32.455Z,4.30
2022-08-22T02:26:21.735Z,4.15
2022-08-22T02:27:32.785Z,4.60
2022-08-22T02:28:18.650Z,4.32
2022-08-22T02:29:17.508Z,4.53
2022-08-22T02:30:10.406Z,3.88
2022-08-22T02:31:00.057Z,4.25
2022-08-22T02:31:58.095Z,4.28
2022-08-22T02:32:53.518Z,4.10
2022-08-22T02:33:45.706Z,4.05
2022-08-22T02:34:36.696Z,4.03
2022-08-22T02:35:51.354Z,4.22
2022-08-22T02:36:46.689Z,3.88
2022-08-22T02:38:07.910Z,4.22
2022-08-22T02:38:56.243Z,4.05
2022-08-22T02:39:49.475Z,4.05
2022-08-22T02:40:43.601Z,4.15
2022-08-22T02:41:36.207Z,4.40
2022-08-22T02:42:33.693Z,4.03
2022-08-22T02:43:15.329Z,3.65
2022-08-22T02:44:04.480Z,4.28
2022-08-22T02:44:49.627Z,4.18
2022-08-22T02:45:42.331Z,4.00
2022-08-22T02:46:49.543Z,4.20
2022-08-22T02:47:31.894Z,4.90
2022-08-22T02:48:31.534Z,4.68
2022-08-22T02:49:34.880Z,4.30
2022-08-22T02:50:56.937Z,4.10
2022-08-22T02:51:51.232Z,3.92
2022-08-22T02:52:51.053Z,3.70
2022-08-22T02:53:52.577Z,4.38
2022-08-22T02:54:37.360Z,4.40
2022-08-22T02:55:31.314Z,4.20
2022-08-22T02:56:14.948Z,4.15
2022-08-22T02:57:14.039Z,4.03
2022-08-22T02:58:18.226Z,4.20
2022-08-22T02:59:22.611Z,4.80
2022-08-22T03:00:31.289Z,4.75
2022-08-22T03:01:43.915Z,4.78
2022-08-22T03:02:33.427Z,4.40
2022-08-22T03:03:23.599Z,4.50
2022-08-22T03:04:24.166Z,4.38
2022-08-22T03:05:27.830Z,4.50
2022-08-22T03:06:34.534Z,4.38
2022-08-22T03:07:22.601Z,4.78
2022-08-22T03:08:22.737Z,4.65
2022-08-22T03:09:07.588Z,4.45
2022-08-22T03:10:19.455Z,4.35
2022-08-22T03:11:23.245Z,4.57
2022-08-22T03:12:20.998Z,4.22
2022-08-22T03:13:48.042Z,4.00
2022-08-22T03:14:33.156Z,4.00
2022-08-22T03:15:40.875Z,4.50
2022-08-22T03:16:35.939Z,4.30
2022-08-22T03:17:21.365Z,4.40
2022-08-22T03:18:19.499Z,4.30
2022-08-22T03:19:31.440Z,4.55
2022-08-22T03:20:41.665Z,3.90
2022-08-22T03:21:35.683Z,4.90
2022-08-22T03:22:37.974Z,4.78
2022-08-22T03:23:31.272Z,4.38
2022-08-22T03:24:22.795Z,4.90
2022-08-22T03:25:07.831Z,4.55
2022-08-22T03:26:15.313Z,4.40
2022-08-22T03:27:12.818Z,4.60
2022-08-22T03:28:08.061Z,4.40
2022-08-22T03:28:59.842Z,4.20
2022-08-22T03:29:48.742Z,4.50
2022-08-22T03:30:43.353Z,5.10
2022-08-22T03:31:26.726Z,4.70
2022-08-22T03:32:13.439Z,4.95
2022-08-22T03:32:59.254Z,4.10
2022-08-22T03:33:41.930Z,4.90
2022-08-22T03:34:26.377Z,4.97
2022-08-22T03:35:12.417Z,4.90
2022-08-22T03:36:16.134Z,5.03
2022-08-22T03:37:23.110Z,4.90
2022-08-22T03:38:23.632Z,4.90
2022-08-22T03:39:07.302Z,4.45
2022-08-22T03:40:32.106Z,4.60
2022-08-22T03:41:52.518Z,5.05
2022-08-22T03:42:38.909Z,4.60
2022-08-22T03:43:23.578Z,4.40
2022-08-22T03:44:19.494Z,4.40
2022-08-22T03:45:26.574Z,4.30
2022-08-22T03:46:39.115Z,4.28
2022-08-22T03:47:34.665Z,5.25
2022-08-22T03:48:55.021Z,4.85
2022-08-22T03:49:37.088Z,4.50
2022-08-22T03:50:37.625Z,5.30
2022-08-22T03:51:47.765Z,4.60
2022-08-22T03:53:04.413Z,5.35
2022-08-22T03:53:46.052Z,4.55
2022-08-22T03:54:48.942Z,4.38
2022-08-22T03:55:45.663Z,4.40
2022-08-22T03:56:54.116Z,4.40
2022-08-22T03:58:27.892Z,4.55
2022-08-22T03:59:31.733Z,4.57
2022-08-22T04:00:22.255Z,4.75
2022-08-22T04:01:14.609Z,4.65
2022-08-22T04:02:27.522Z,4.40
2022-08-22T04:04:01.239Z,4.30
2022-08-22T04:05:04.884Z,4.40
2022-08-22T04:06:12.852Z,5.03
2022-08-22T04:07:28.102Z,4.55
2022-08-22T04:08:16.744Z,4.80
2022-08-22T04:09:17.192Z,5.00
2022-08-22T04:10:11.285Z,5.43
2022-08-22T04:11:05.260Z,4.63
2022-08-22T04:12:13.456Z,4.82
2022-08-22T04:13:32.607Z,4.50
2022-08-22T04:14:17.062Z,4.53
2022-08-22T04:15:20.324Z,4.30
2022-08-22T04:16:20.480Z,4.70
2022-08-22T04:17:21.471Z,4.70
2022-08-22T04:18:29.328Z,4.93
2022-08-22T04:19:30.716Z,4.80
2022-08-22T04:20:16.724Z,5.00
2022-08-22T04:21:20.338Z,4.70
2022-08-22T04:22:23.666Z,5.30
2022-08-22T04:23:14.962Z,4.35
2022-08-22T04:23:57.125Z,4.20
2022-08-22T04:25:08.238Z,4.45
2022-08-22T04:25:58.594Z,4.30
2022-08-22T04:26:47.494Z,4.68
2022-08-22T04:27:32.609Z,4.55
2022-08-22T04:28:14.683Z,4.80
2022-08-22T04:29:07.885Z,4.97
2022-08-22T04:30:25.106Z,4.22
2022-08-22T04:31:11.941Z,4.65
2022-08-22T04:32:36.166Z,4.63
2022-08-22T04:33:26.863Z,4.60
2022-08-22T04:34:37.218Z,4.85
2022-08-22T04:35:34.992Z,4.32
2022-08-22T04:36:21.320Z,4.55
2022-08-22T04:37:27.251Z,4.60
2022-08-22T04:38:23.879Z,4.55
2022-08-22T04:39:09.639Z,4.90
2022-08-22T04:39:54.654Z,4.70
2022-08-22T04:40:43.414Z,4.82
2022-08-22T04:41:50.909Z,4.18
2022-08-22T04:42:36.384Z,5.00
2022-08-22T04:43:28.060Z,5.05
2022-08-22T04:44:45.473Z,4.40
2022-08-22T04:45:40.842Z,4.40
2022-08-22T04:46:38.845Z,5.15
2022-08-22T04:47:41.318Z,4.75
2022-08-22T04:48:40.852Z,5.53
2022-08-22T04:49:26.012Z,5.03
2022-08-22T04:50:10.920Z,5.00
2022-08-22T04:50:58.761Z,4.38
2022-08-22T04:51:47.973Z,4.65
2022-08-22T04:52:48.601Z,5.53
2022-08-22T04:53:48.119Z,5.53
2022-08-22T04:54:48.427Z,4.82
2022-08-22T04:56:07.623Z,4.97
2022-08-22T04:56:55.881Z,5.50
2022-08-22T04:57:46.475Z,5.32
2022-08-22T04:58:55.902Z,5.15
2022-08-22T04:59:38.749Z,5.40
2022-08-22T05:00:20.656Z,5.20
2022-08-22T05:01:07.525Z,4.70
2022-08-22T05:02:00.398Z,4.70
2022-08-22T05:02:48.567Z,5.05
2022-08-22T05:03:33.337Z,4.60
2022-08-22T05:04:25.256Z,4.40
2022-08-22T05:05:16.855Z,4.85
2022-08-22T05:06:00.909Z,5.20
2022-08-22T05:06:49.252Z,4.88
2022-08-22T05:07:36.376Z,4.82
2022-08-22T05:08:20.741Z,4.73
2022-08-22T05:09:10.869Z,4.68
2022-08-22T05:10:11.661Z,5.05
2022-08-22T05:10:54.892Z,5.00
2022-08-22T05:11:37.897Z,4.60
2022-08-22T05:12:22.944Z,5.10
2022-08-22T05:13:08.325Z,5.70
2022-08-22T05:13:58.513Z,4.90
2022-08-22T05:14:43.820Z,5.20
2022-08-22T05:15:35.250Z,5.47
2022-08-22T05:16:40.649Z,4.50
2022-08-22T05:17:27.970Z,5.07
2022-08-22T05:18:13.416Z,4.65
2022-08-22T05:19:17.461Z,4.43
2022-08-22T05:20:08.875Z,5.05
2022-08-22T05:20:53.978Z,5.00
2022-08-22T05:21:39.800Z,5.30
2022-08-22T05:22:27.727Z,5.25
2022-08-22T05:23:24.603Z,4.75
2022-08-22T05:24:12.029Z,4.47
2022-08-22T05:24:56.998Z,4.78
2022-08-22T05:25:42.295Z,5.55
2022-08-22T05:26:26.629Z,4.95
2022-08-22T05:27:23.630Z,4.68
2022-08-22T05:28:08.824Z,5.82
2022-08-22T05:28:54.700Z,5.85
2022-08-22T05:29:41.279Z,5.40
2022-08-22T05:30:28.288Z,4.78
2022-08-22T05:31:14.957Z,4.70
2022-08-22T05:31:59.430Z,4.70
2022-08-22T05:33:01.533Z,4.32
2022-08-22T05:33:46.643Z,4.50
2022-08-22T05:34:37.342Z,4.78
2022-08-22T05:35:23.221Z,5.05
2022-08-22T05:36:10.949Z,5.20
2022-08-22T05:37:04.487Z,5.00
2022-08-22T05:37:55.063Z,4.70
2022-08-22T05:38:40.023Z,4.60
2022-08-22T05:39:28.038Z,4.88
2022-08-22T05:40:19.186Z,5.20
2022-08-22T05:41:10.490Z,4.70
2022-08-22T05:41:54.491Z,5.20
2022-08-22T05:42:37.445Z,5.78
2022-08-22T05:43:21.166Z,5.80
2022-08-22T05:44:03.575Z,5.50
2022-08-22T05:44:45.714Z,5.28
2022-08-22T05:45:28.878Z,5.65
2022-08-22T05:46:38.954Z,5.72
2022-08-22T05:47:28.937Z,5.10
2022-08-22T05:48:18.406Z,5.80
2022-08-22T05:49:03.109Z,5.40
2022-08-22T05:50:04.588Z,5.40
2022-08-22T05:50:56.458Z,4.80
2022-08-22T05:51:49.144Z,5.03
2022-08-22T05:52:50.457Z,5.25
2022-08-22T05:53:40.840Z,4.93
2022-08-22T05:54:34.383Z,5.07
2022-08-22T05:55:28.433Z,5.18
2022-08-22T05:56:10.546Z,4.90
2022-08-22T05:57:08.728Z,5.03
2022-08-22T05:58:05.728Z,5.35
2022-08-22T05:59:00.110Z,5.65
2022-08-22T05:59:44.006Z,5.80
2022-08-22T06:00:27.639Z,5.15
2022-08-22T06:01:28.509Z,5.47
2022-08-22T06:02:27.129Z,5.50
2022-08-22T06:03:36.342Z,5.78
2022-08-22T06:04:33.483Z,5.90
2022-08-22T06:05:25.335Z,5.50
2022-08-22T06:06:18.231Z,6.20
2022-08-22T06:07:31.172Z,5.95
2022-08-22T06:08:30.084Z,5.50
2022-08-22T06:09:35.502Z,5.50
2022-08-22T06:10:35.145Z,5.97
2022-08-22T06:11:33.839Z,5.55
2022-08-22T06:12:32.996Z,5.40
2022-08-22T06:13:25.457Z,6.05
2022-08-22T06:14:29.581Z,5.93
2022-08-22T06:15:32.593Z,5.72
2022-08-22T06:16:17.021Z,5.50
2022-08-22T06:17:10.229Z,5.95
2022-08-22T06:17:55.281Z,5.97
2022-08-22T06:18:43.295Z,6.10
2022-08-22T06:19:25.539Z,7.03
2022-08-22T06:20:10.436Z,6.38
2022-08-22T06:21:04.265Z,6.57
2022-08-22T06:21:48.613Z,6.50
2022-08-22T06:22:35.884Z,6.90
2022-08-22T06:23:42.957Z,6.30
2022-08-22T06:24:27.359Z,6.45
2022-08-22T06:25:12.950Z,6.97
2022-08-22T06:25:57.594Z,6.80
2022-08-22T06:26:45.236Z,6.68
2022-08-22T06:27:31.619Z,6.60
2022-08-22T06:28:18.320Z,6.40
2022-08-22T06:29:01.541Z,6.78
2022-08-22T06:29:51.261Z,6.45
2022-08-22T06:30:35.543Z,6.90
2022-08-22T06:31:23.475Z,7.88
2022-08-22T06:32:44.374Z,7.13
2022-08-22T06:33:23.504Z,7.00
2022-08-22T06:34:11.855Z,6.50
2022-08-22T06:34:55.908Z,7.20
2022-08-22T06:35:59.621Z,7.15
2022-08-22T06:36:47.640Z,8.60
2022-08-22T06:37:38.506Z,7.72
2022-08-22T06:38:21.729Z,7.40
2022-08-22T06:39:17.340Z,7.03
2022-08-22T06:40:02.245Z,6.50
2022-08-22T06:40:44.420Z,6.70
2022-08-22T06:41:30.700Z,7.28
2022-08-22T06:42:17.067Z,6.38
2022-08-22T06:42:59.476Z,6.80
2022-08-22T06:43:43.974Z,6.78
2022-08-22T06:44:37.372Z,6.88
2022-08-22T06:45:32.103Z,7.22
2022-08-22T06:46:16.849Z,7.80
2022-08-22T06:47:00.985Z,7.70
2022-08-22T06:47:50.270Z,7.35
2022-08-22T06:48:34.516Z,6.38
2022-08-22T06:49:16.717Z,6.90
2022-08-22T06:50:06.520Z,7.45
2022-08-22T06:50:58.611Z,8.15
2022-08-22T06:51:41.220Z,7.50
2022-08-22T06:52:27.143Z,7.47
2022-08-22T06:53:34.995Z,7.72
2022-08-22T06:54:22.013Z,7.45
2022-08-22T06:55:08.071Z,7.00
2022-08-22T06:55:54.537Z,7.07
2022-08-22T06:56:41.532Z,7.13
2022-08-22T06:57:55.481Z,7.00
2022-08-22T06:58:45.872Z,6.57
2022-08-22T06:59:30.931Z,6.88
2022-08-22T07:00:16.071Z,6.93
2022-08-22T07:01:11.869Z,6.90
2022-08-22T07:02:20.744Z,6.88
2022-08-22T07:03:26.895Z,7.40
2022-08-22T07:04:10.089Z,7.10
2022-08-22T07:04:52.022Z,7.07
2022-08-22T07:05:40.513Z,6.28
2022-08-22T07:06:41.487Z,5.60
2022-08-22T07:07:26.513Z,6.00
2022-08-22T07:08:09.937Z,6.47
2022-08-22T07:08:55.773Z,5.93
2022-08-22T07:09:41.346Z,6.22
2022-08-22T07:10:24.452Z,7.15
2022-08-22T07:11:21.794Z,6.70
2022-08-22T07:12:20.071Z,6.63
2022-08-22T07:13:04.424Z,7.10
2022-08-22T07:14:02.355Z,6.85
2022-08-22T07:14:49.452Z,6.60
2022-08-22T07:15:42.158Z,6.60
2022-08-22T07:16:48.087Z,6.60
2022-08-22T07:17:32.759Z,6.30
2022-08-22T07:18:20.942Z,6.20
2022-08-22T07:19:02.899Z,6.10
2022-08-22T07:19:57.165Z,6.40
2022-08-22T07:20:45.652Z,6.00
2022-08-22T07:21:32.566Z,6.25
2022-08-22T07:22:31.906Z,6.00
2022-08-22T07:23:25.953Z,6.50
2022-08-22T07:24:09.426Z,6.00
2022-08-22T07:25:08.207Z,6.07
2022-08-22T07:25:58.529Z,6.00
2022-08-22T07:26:43.828Z,5.47
2022-08-22T07:27:52.580Z,6.43
2022-08-22T07:28:51.416Z,6.72
2022-08-22T07:29:53.001Z,6.47
2022-08-22T07:30:52.013Z,6.22
2022-08-22T07:31:46.685Z,5.80
2022-08-22T07:32:43.213Z,6.00
2022-08-22T07:33:46.404Z,5.40
2022-08-22T07:34:34.222Z,6.00
2022-08-22T07:35:25.950Z,5.65
2022-08-22T07:36:42.725Z,5.50
2022-08-22T07:37:43.519Z,5.50
2022-08-22T07:38:43.867Z,4.78
2022-08-22T07:39:53.815Z,5.32
2022-08-22T07:40:40.761Z,5.55
2022-08-22T07:41:38.622Z,5.80
2022-08-22T07:42:30.344Z,5.63
2022-08-22T07:43:56.439Z,5.57
2022-08-22T07:44:59.431Z,5.50
2022-08-22T07:45:52.162Z,5.20
2022-08-22T07:46:55.828Z,5.63
2022-08-22T07:47:52.628Z,5.60
2022-08-22T07:49:07.713Z,5.75
2022-08-22T07:50:00.136Z,5.57
2022-08-22T07:50:58.737Z,5.00
2022-08-22T07:51:45.438Z,4.93
2022-08-22T07:52:35.694Z,4.57
2022-08-22T07:53:34.672Z,4.60
2022-08-22T07:54:35.031Z,4.80
2022-08-22T07:55:24.118Z,4.13
2022-08-22T07:56:11.936Z,4.85
2022-08-22T07:56:57.706Z,4.70
2022-08-22T07:57:47.820Z,5.05
2022-08-22T07:58:33.904Z,4.80
2022-08-22T07:59:19.989Z,4.80
2022-08-22T08:00:11.004Z,4.60
2022-08-22T08:00:54.378Z,4.40
2022-08-22T08:01:37.514Z,4.40
2022-08-22T08:02:21.462Z,4.90
2022-08-22T08:03:07.327Z,4.70
2022-08-22T08:03:59.931Z,4.60
2022-08-22T08:04:42.533Z,5.35
2022-08-22T08:05:27.673Z,5.07
2022-08-22T08:06:10.116Z,4.80
2022-08-22T08:06:55.825Z,4.78
2022-08-22T08:07:40.688Z,4.50
2022-08-22T08:08:41.942Z,4.60
2022-08-22T08:09:27.639Z,5.10
2022-08-22T08:10:14.450Z,4.55
2022-08-22T08:10:59.205Z,4.57
2022-08-22T08:11:43.549Z,4.40
2022-08-22T08:12:36.693Z,4.38
2022-08-22T08:13:31.076Z,4.40
2022-08-22T08:14:16.705Z,4.30
2022-08-22T08:15:01.127Z,4.55
2022-08-22T08:15:45.792Z,4.60
2022-08-22T08:16:34.449Z,3.88
2022-08-22T08:17:22.947Z,4.25
2022-08-22T08:18:10.833Z,4.07
2022-08-22T08:18:56.675Z,3.55
2022-08-22T08:19:41.279Z,3.78
2022-08-22T08:20:26.207Z,3.40
2022-08-22T08:21:14.771Z,3.80
2022-08-22T08:21:57.944Z,3.90
2022-08-22T08:22:42.900Z,3.90
2022-08-22T08:23:26.528Z,4.10
2022-08-22T08:24:15.586Z,3.22
2022-08-22T08:25:00.224Z,3.03
2022-08-22T08:25:58.222Z,3.60
2022-08-22T08:27:04.283Z,3.92
2022-08-22T08:28:04.979Z,3.05
2022-08-22T08:28:54.299Z,3.40
2022-08-22T08:29:37.112Z,3.20
2022-08-22T08:30:35.535Z,3.60
2022-08-22T08:31:29.162Z,3.50
2022-08-22T08:32:13.132Z,3.67
2022-08-22T08:33:24.397Z,3.72
2022-08-22T08:34:23.588Z,3.33
2022-08-22T08:35:20.347Z,3.13
2022-08-22T08:36:17.884Z,2.60
2022-08-22T08:37:16.910Z,3.20
2022-08-22T08:38:11.469Z,3.13
2022-08-22T08:39:14.181Z,3.30
2022-08-22T08:39:59.330Z,2.95
2022-08-22T08:41:08.626Z,3.40
2022-08-22T08:42:27.989Z,3.88
2022-08-22T08:43:28.239Z,3.35
2022-08-22T08:44:28.831Z,2.88
2022-08-22T08:45:48.289Z,3.60
2022-08-22T08:46:39.051Z,2.95
2022-08-22T08:47:35.955Z,4.00
2022-08-22T08:48:41.612Z,2.92
2022-08-22T08:49:47.097Z,3.42
2022-08-22T08:50:55.058Z,2.90
2022-08-22T08:51:53.694Z,3.00
2022-08-22T08:52:42.129Z,3.08
2022-08-22T08:53:48.373Z,4.30
2022-08-22T08:54:44.173Z,3.00
2022-08-22T08:55:54.264Z,2.90
2022-08-22T08:56:47.191Z,3.05
2022-08-22T08:57:50.413Z,3.35
2022-08-22T09:00:14.494Z,3.20
2022-08-22T09:01:12.542Z,3.20
2022-08-22T09:02:33.888Z,3.28
2022-08-22T09:03:36.170Z,3.10
2022-08-22T09:05:24.602Z,3.30
2022-08-22T09:06:24.256Z,3.50
2022-08-22T09:07:47.964Z,3.25
2022-08-22T09:09:11.691Z,3.30
2022-08-22T09:10:13.903Z,3.30
2022-08-22T09:11:31.051Z,3.00
2022-08-22T09:12:25.068Z,2.45
2022-08-22T09:13:34.609Z,2.80
2022-08-22T09:14:37.595Z,2.75
2022-08-22T09:15:38.924Z,2.95
2022-08-22T09:16:51.921Z,2.90
2022-08-22T09:17:50.931Z,2.60
2022-08-22T09:18:51.832Z,2.92
2022-08-22T09:19:46.295Z,3.03
2022-08-22T09:20:49.161Z,3.33
2022-08-22T09:21:58.518Z,2.72
2022-08-22T09:22:52.452Z,2.25
2022-08-22T09:23:48.794Z,2.70
2022-08-22T09:25:06.122Z,2.70
2022-08-22T09:25:55.221Z,2.78
2022-08-22T09:26:48.247Z,2.50
2022-08-22T09:27:45.972Z,2.50
2022-08-22T09:28:34.558Z,2.88
2022-08-22T09:29:33.860Z,2.50
2022-08-22T09:30:27.574Z,3.40
2022-08-22T09:31:47.460Z,2.92
2022-08-22T09:32:54.683Z,2.63
2022-08-22T09:33:55.006Z,2.70
2022-08-22T09:35:18.678Z,2.60
2022-08-22T09:36:07.216Z,3.05
2022-08-22T09:37:20.908Z,2.80
2022-08-22T09:38:34.726Z,2.50
2022-08-22T09:39:22.447Z,2.80
2022-08-22T09:40:30.240Z,2.80
2022-08-22T09:41:18.696Z,2.40
2022-08-22T09:42:25.419Z,2.67
2022-08-22T09:43:22.852Z,2.10
2022-08-22T09:44:39.677Z,2.25
2022-08-22T09:45:45.356Z,2.40
2022-08-22T09:46:49.968Z,2.10
2022-08-22T09:47:51.890Z,2.50
2022-08-22T09:49:06.581Z,2.65
2022-08-22T09:50:17.888Z,3.20
2022-08-22T09:51:32.655Z,2.08
2022-08-22T09:52:48.538Z,2.60
2022-08-22T09:53:59.484Z,2.30
2022-08-22T09:55:02.980Z,2.55
2022-08-22T09:56:01.626Z,2.80
2022-08-22T09:57:10.572Z,1.98
2022-08-22T09:58:06.762Z,3.08
2022-08-22T09:59:21.736Z,2.50
2022-08-22T10:00:06.659Z,2.47
2022-08-22T10:01:10.001Z,2.40
2022-08-22T10:01:59.447Z,2.58
2022-08-22T10:02:53.870Z,2.72
2022-08-22T10:04:00.418Z,2.60
2022-08-22T10:05:06.692Z,2.78
2022-08-22T10:05:56.960Z,2.58
2022-08-22T10:06:49.714Z,2.60
2022-08-22T10:08:02.430Z,2.28
2022-08-22T10:08:50.615Z,2.42
2022-08-22T10:10:03.642Z,3.00
2022-08-22T10:11:07.449Z,2.40
2022-08-22T10:12:02.826Z,3.10
2022-08-22T10:12:54.860Z,2.60
2022-08-22T10:13:46.823Z,2.53
2022-08-22T10:14:53.446Z,2.63
2022-08-22T10:15:47.421Z,2.28
2022-08-22T10:17:07.900Z,3.05
2022-08-22T10:18:19.392Z,3.08
2022-08-22T10:19:18.060Z,2.50
2022-08-22T10:20:24.876Z,2.60
2022-08-22T10:21:35.299Z,3.00
2022-08-22T10:22:41.531Z,2.75
2022-08-22T10:23:34.210Z,3.20
2022-08-22T10:24:58.756Z,2.90
2022-08-22T10:25:48.485Z,2.10
2022-08-22T10:26:38.616Z,3.13
2022-08-22T10:27:39.655Z,3.00
2022-08-22T10:28:39.474Z,2.70
2022-08-22T10:29:51.250Z,2.20
2022-08-22T10:30:42.795Z,2.42
2022-08-22T10:31:59.091Z,2.70
2022-08-22T10:32:44.971Z,2.88
2022-08-22T10:33:29.229Z,3.00
2022-08-22T10:34:20.289Z,2.40
2022-08-22T10:35:28.539Z,2.70
2022-08-22T10:36:40.995Z,2.72
2022-08-22T10:37:37.221Z,2.75
2022-08-22T10:38:46.609Z,3.38
2022-08-22T10:39:53.855Z,3.30
2022-08-22T10:40:41.615Z,2.60
2022-08-22T10:41:39.482Z,3.08
2022-08-22T10:42:35.169Z,2.55
2022-08-22T10:43:56.515Z,3.08
2022-08-22T10:45:07.908Z,2.72
2022-08-22T10:46:03.586Z,2.65
2022-08-22T10:46:57.163Z,2.90
2022-08-22T10:47:50.837Z,2.88
2022-08-22T10:48:50.345Z,2.63
2022-08-22T10:49:51.299Z,2.35
2022-08-22T10:50:38.328Z,2.40
2022-08-22T10:51:28.949Z,2.70
2022-08-22T10:52:34.874Z,2.67
2022-08-22T10:53:35.840Z,2.85
2022-08-22T10:54:20.713Z,2.63
2022-08-22T10:55:17.389Z,2.60
2022-08-22T10:56:43.853Z,2.85
2022-08-22T10:57:44.068Z,2.80
2022-08-22T10:58:36.803Z,2.20
2022-08-22T10:59:38.507Z,2.80
2022-08-22T11:00:46.329Z,2.78
2022-08-22T11:01:41.808Z,3.00
2022-08-22T11:02:38.446Z,2.25
2022-08-22T11:03:24.759Z,2.80
2022-08-22T11:04:30.912Z,2.45
2022-08-22T11:05:24.593Z,2.40
2022-08-22T11:06:44.801Z,3.20
2022-08-22T11:07:42.240Z,2.38
2022-08-22T11:08:42.540Z,2.70
2022-08-22T11:09:28.265Z,2.60
2022-08-22T11:10:24.051Z,2.42
2022-08-22T11:11:14.375Z,2.40
2022-08-22T11:12:07.831Z,2.30
2022-08-22T11:13:12.810Z,2.85
2022-08-22T11:14:31.370Z,2.67
2022-08-22T11:15:34.771Z,2.80
2022-08-22T11:16:42.727Z,2.83
2022-08-22T11:17:32.437Z,2.90
2022-08-22T11:19:02.959Z,2.75
2022-08-22T11:20:12.499Z,2.50
2022-08-22T11:21:07.176Z,2.70
2022-08-22T11:22:31.246Z,2.60
2022-08-22T11:23:38.955Z,2.85
2022-08-22T11:24:55.251Z,2.53
2022-08-22T11:25:53.958Z,2.45
2022-08-22T11:26:47.510Z,2.83
2022-08-22T11:27:56.476Z,2.30
2022-08-22T11:29:20.284Z,2.60
2022-08-22T11:30:06.578Z,2.45
2022-08-22T11:31:03.555Z,2.30
2022-08-22T11:32:08.884Z,2.58
2022-08-22T11:33:06.249Z,2.60
2022-08-22T11:34:13.874Z,2.50
2022-08-22T11:35:19.786Z,2.50
2022-08-22T11:36:04.665Z,2.80
2022-08-22T11:36:55.752Z,2.80
2022-08-22T11:37:49.124Z,2.60
2022-08-22T11:38:49.076Z,2.40
2022-08-22T11:39:41.136Z,2.40
2022-08-22T11:40:44.985Z,2.85
2022-08-22T11:41:53.019Z,2.80
2022-08-22T11:42:47.922Z,2.63
2022-08-22T11:43:41.595Z,2.50
2022-08-22T11:44:34.305Z,2.45
2022-08-22T11:45:25.206Z,2.60
2022-08-22T11:46:22.216Z,2.58
2022-08-22T11:47:11.553Z,2.55
2022-08-22T11:48:09.782Z,2.58
2022-08-22T11:48:57.909Z,2.22
2022-08-22T11:50:13.821Z,2.42
2022-08-22T11:51:25.011Z,2.80
2022-08-22T11:52:12.434Z,2.97
2022-08-22T11:53:07.781Z,2.60
2022-08-22T11:54:07.578Z,2.50
2022-08-22T11:55:01.034Z,2.35
2022-08-22T11:55:47.211Z,2.70
2022-08-22T11:56:50.033Z,2.60
2022-08-22T11:57:44.321Z,3.10
2022-08-22T11:58:30.011Z,2.75
2022-08-22T11:59:32.961Z,2.60
2022-08-22T12:00:23.367Z,2.38
2022-08-22T12:01:17.523Z,2.60
2022-08-22T12:02:04.226Z,2.63
2022-08-22T12:03:23.300Z,2.72
2022-08-22T12:04:20.192Z,2.50
2022-08-22T12:05:10.809Z,2.90
2022-08-22T12:06:28.974Z,2.75
2022-08-22T12:07:17.805Z,2.53
2022-08-22T12:08:40.736Z,2.90
2022-08-22T12:09:44.307Z,2.30
2022-08-22T12:10:35.414Z,2.70
2022-08-22T12:11:40.404Z,2.70
2022-08-22T12:12:32.591Z,2.40
2022-08-22T12:13:39.027Z,2.92
2022-08-22T12:14:42.871Z,2.80
2022-08-22T12:15:28.993Z,2.80
2022-08-22T12:16:29.840Z,2.40
2022-08-22T12:17:55.338Z,2.70
2022-08-22T12:18:52.971Z,2.80
2022-08-22T12:20:15.156Z,2.80
2022-08-22T12:21:10.527Z,2.65
2022-08-22T12:22:32.589Z,2.65
2022-08-22T12:23:43.148Z,2.45
2022-08-22T12:24:30.827Z,2.65
2022-08-22T12:25:30.892Z,2.63
2022-08-22T12:26:41.515Z,2.60
2022-08-22T12:27:48.140Z,2.60
2022-08-22T12:28:54.657Z,2.58
2022-08-22T12:29:55.306Z,2.40
2022-08-22T12:31:04.467Z,2.50
2022-08-22T12:32:02.657Z,2.60
2022-08-22T12:32:57.234Z,2.90
2022-08-22T12:33:48.429Z,3.22
2022-08-22T12:35:13.742Z,3.20
2022-08-22T12:36:17.793Z,2.38
2022-08-22T12:37:18.896Z,2.33
2022-08-22T12:38:40.287Z,2.80